createdAt,value
2022-10-21T00:01:33.210Z,11.57
2022-10-21T00:06:35.608Z,13.05
2022-10-21T00:11:37.946Z,11.80
2022-10-21T00:16:40.439Z,12.70
2022-10-21T00:21:42.978Z,12.88
2022-10-21T00:26:45.174Z,13.30
2022-10-21T00:31:47.532Z,12.32
2022-10-21T00:36:49.998Z,12.93
2022-10-21T00:41:52.358Z,11.95
2022-10-21T00:46:59.653Z,11.32
2022-10-21T00:52:04.465Z,11.90
2022-10-21T00:57:08.040Z,12.10
2022-10-21T01:02:10.802Z,12.65
2022-10-21T01:07:14.418Z,12.48
2022-10-21T01:12:31.242Z,12.55
2022-10-21T01:17:44.097Z,13.68
2022-10-21T01:23:32.214Z,12.00
2022-10-21T01:28:48.772Z,13.25
2022-10-21T01:34:18.114Z,13.73
2022-10-21T01:39:57.536Z,13.05
2022-10-21T01:45:13.129Z,12.93
2022-10-21T01:50:21.393Z,14.02
2022-10-21T01:55:27.453Z,13.77
2022-10-21T02:00:30.696Z,14.25
2022-10-21T02:05:34.740Z,13.32
2022-10-21T02:10:46.609Z,13.90
2022-10-21T02:15:48.923Z,13.60
2022-10-21T02:20:56.649Z,12.48
2022-10-21T02:25:59.095Z,13.80
2022-10-21T02:31:20.179Z,12.77
2022-10-21T02:36:45.484Z,12.85
2022-10-21T02:41:49.105Z,15.23
2022-10-21T02:46:52.750Z,12.65
2022-10-21T02:51:55.086Z,12.90
2022-10-21T02:56:57.404Z,13.88
2022-10-21T03:01:59.988Z,12.93
2022-10-21T03:07:02.554Z,12.95
2022-10-21T03:12:04.794Z,13.50
2022-10-21T03:17:07.014Z,13.48
2022-10-21T03:22:09.212Z,13.48
2022-10-21T03:27:11.396Z,13.30
2022-10-21T03:32:13.593Z,13.23
2022-10-21T03:37:15.777Z,14.13
2022-10-21T03:42:18.036Z,14.10
2022-10-21T03:47:20.205Z,13.52
2022-10-21T03:52:22.382Z,14.23
2022-10-21T03:57:24.557Z,13.23
2022-10-21T04:02:26.907Z,15.23
2022-10-21T04:07:29.296Z,13.88
2022-10-21T04:12:31.432Z,14.45
2022-10-21T04:17:33.748Z,13.63
2022-10-21T04:22:36.396Z,14.02
2022-10-21T04:27:38.809Z,14.13
2022-10-21T04:32:41.619Z,13.65
2022-10-21T04:37:44.666Z,14.68
2022-10-21T04:42:50.656Z,15.85
2022-10-21T04:47:52.938Z,16.00
2022-10-21T04:52:55.089Z,14.93
2022-10-21T04:57:57.440Z,14.45
2022-10-21T05:03:00.238Z,17.98
2022-10-21T05:08:02.582Z,16.88
2022-10-21T05:13:04.926Z,16.33
2022-10-21T05:18:07.474Z,14.70
2022-10-21T05:23:09.781Z,14.82
2022-10-21T05:28:11.989Z,16.65
2022-10-21T05:33:14.638Z,14.50
2022-10-21T05:38:16.960Z,15.50
2022-10-21T05:43:19.629Z,13.32
2022-10-21T05:48:22.026Z,14.13
2022-10-21T05:53:25.157Z,13.32
2022-10-21T05:58:28.343Z,13.40
2022-10-21T06:03:33.391Z,11.90
2022-10-21T06:08:37.997Z,13.63
2022-10-21T06:13:41.338Z,11.18
2022-10-21T06:18:43.871Z,11.75
2022-10-21T06:23:46.032Z,11.55
2022-10-21T06:28:48.407Z,12.30
2022-10-21T06:33:50.728Z,14.52
2022-10-21T06:38:53.295Z,13.13
2022-10-21T06:43:55.510Z,12.70
2022-10-21T06:48:58.099Z,13.52
2022-10-21T06:54:00.766Z,13.63
2022-10-21T06:59:03.127Z,13.88
2022-10-21T07:04:06.459Z,13.40
2022-10-21T07:09:09.248Z,12.65
2022-10-21T07:14:12.922Z,12.60
2022-10-21T07:19:15.473Z,11.90
2022-10-21T07:24:22.181Z,13.82
2022-10-21T07:29:25.005Z,13.10
2022-10-21T07:34:27.348Z,14.75
2022-10-21T07:39:29.873Z,12.07
2022-10-21T07:44:32.103Z,14.00
2022-10-21T07:49:34.331Z,11.88
2022-10-21T07:54:36.805Z,13.45
2022-10-21T07:59:39.187Z,14.32
2022-10-21T08:04:41.584Z,11.88
2022-10-21T08:09:43.789Z,12.52
2022-10-21T08:14:46.091Z,11.93
2022-10-21T08:19:48.722Z,13.07
2022-10-21T08:24:50.987Z,12.25
2022-10-21T08:29:53.172Z,13.05
2022-10-21T08:34:55.655Z,12.07
2022-10-21T08:39:58.433Z,11.98
2022-10-21T08:45:07.490Z,11.88
2022-10-21T08:50:22.336Z,12.00
2022-10-21T08:55:33.756Z,10.70
2022-10-21T09:01:04.429Z,10.68
2022-10-21T09:06:40.164Z,12.93
2022-10-21T09:11:47.296Z,19.73
2022-10-21T09:17:05.911Z,14.27
2022-10-21T09:22:45.394Z,14.45
2022-10-21T09:27:56.052Z,14.75
2022-10-21T09:33:00.676Z,14.23
2022-10-21T09:38:07.254Z,12.25
2022-10-21T09:43:18.880Z,13.18
2022-10-21T09:48:26.076Z,10.60
2022-10-21T09:53:34.829Z,8.98
2022-10-21T09:58:37.028Z,10.97
2022-10-21T10:03:46.462Z,11.10
2022-10-21T10:08:49.021Z,9.90
2022-10-21T10:13:53.582Z,8.52
2022-10-21T10:19:22.390Z,8.20
2022-10-21T10:24:24.609Z,8.02
2022-10-21T10:29:29.397Z,8.88
2022-10-21T10:34:37.904Z,9.05
2022-10-21T10:39:40.825Z,9.20
2022-10-21T10:44:45.141Z,8.88
2022-10-21T10:49:47.954Z,8.48
2022-10-21T10:55:12.842Z,12.27
2022-10-21T11:00:21.247Z,7.65
2022-10-21T11:11:48.904Z,5.95
2022-10-21T11:17:09.735Z,6.45
2022-10-21T11:22:50.295Z,8.52
2022-10-21T11:28:04.876Z,6.05
2022-10-21T11:34:01.586Z,6.72
2022-10-21T11:39:32.851Z,7.10
2022-10-21T11:44:55.328Z,6.70
2022-10-21T11:50:12.273Z,8.48
2022-10-21T11:55:25.961Z,6.00
2022-10-21T12:00:31.647Z,6.00
2022-10-21T12:05:55.285Z,5.70
2022-10-21T12:11:00.491Z,6.40
2022-10-21T12:16:12.290Z,6.47
2022-10-21T12:21:22.187Z,6.00
2022-10-21T12:26:32.621Z,7.22
2022-10-21T12:31:51.892Z,5.85
2022-10-21T12:36:55.416Z,5.40
2022-10-21T12:42:24.885Z,4.70
2022-10-21T12:47:35.075Z,6.25
2022-10-21T12:52:39.458Z,5.90
2022-10-21T12:57:42.633Z,5.30
2022-10-21T13:02:57.454Z,5.35
2022-10-21T13:08:27.572Z,5.28
2022-10-21T13:13:39.910Z,5.20
2022-10-21T13:18:52.061Z,5.35
2022-10-21T13:23:55.478Z,5.18
2022-10-21T13:29:02.174Z,5.50
2022-10-21T13:34:04.713Z,4.72
2022-10-21T13:39:24.846Z,4.10
2022-10-21T13:44:35.850Z,4.00
2022-10-21T13:49:38.432Z,3.47
2022-10-21T13:54:40.633Z,4.03
2022-10-21T13:59:42.898Z,3.20
2022-10-21T14:04:45.211Z,3.75
2022-10-21T14:09:55.338Z,4.47
2022-10-21T14:15:02.216Z,4.95
2022-10-21T14:20:14.371Z,4.18
2022-10-21T14:25:18.233Z,3.95
2022-10-21T14:30:26.389Z,3.10
2022-10-21T14:35:30.621Z,3.70
2022-10-21T14:40:41.993Z,3.20
2022-10-21T14:45:49.792Z,3.00
2022-10-21T14:50:55.630Z,2.90
2022-10-21T14:56:00.710Z,2.88
2022-10-21T15:01:19.973Z,3.00
2022-10-21T15:11:29.457Z,3.00
2022-10-21T15:16:31.779Z,3.90
2022-10-21T15:22:02.150Z,3.70
2022-10-21T15:27:05.772Z,3.97
2022-10-21T15:32:10.957Z,3.10
2022-10-21T15:37:13.157Z,3.80
2022-10-21T15:42:18.803Z,3.15
2022-10-21T15:47:21.190Z,3.63
2022-10-21T15:52:23.574Z,3.55
2022-10-21T15:57:25.847Z,4.43
2022-10-21T16:02:28.059Z,3.50
2022-10-21T16:07:33.016Z,3.53
2022-10-21T16:12:35.417Z,3.88
2022-10-21T16:17:37.746Z,3.72
2022-10-21T16:22:40.325Z,3.78
2022-10-21T16:27:55.218Z,3.92
2022-10-21T16:32:58.161Z,4.72
2022-10-21T16:38:00.403Z,3.92
2022-10-21T16:43:02.674Z,3.33
2022-10-21T16:48:05.676Z,4.05
2022-10-21T16:53:13.185Z,3.97
2022-10-21T16:58:15.431Z,3.63
2022-10-21T17:03:17.685Z,4.22
2022-10-21T17:08:19.920Z,3.90
2022-10-21T17:13:22.395Z,4.80
2022-10-21T17:18:24.606Z,5.63
2022-10-21T17:23:29.628Z,5.88
2022-10-21T17:28:32.195Z,4.68
2022-10-21T17:33:34.528Z,4.93
2022-10-21T17:38:37.267Z,4.53
2022-10-21T17:43:39.659Z,4.70
2022-10-21T17:48:42.103Z,5.20
2022-10-21T17:53:44.604Z,5.22
2022-10-21T17:58:51.164Z,5.57
2022-10-21T18:03:54.355Z,4.53
2022-10-21T18:08:59.722Z,5.10
2022-10-21T18:14:02.837Z,6.90
2022-10-21T18:19:05.040Z,6.35
2022-10-21T18:24:11.455Z,6.18
2022-10-21T18:29:14.733Z,5.57
2022-10-21T18:34:17.103Z,7.15
2022-10-21T18:39:20.272Z,7.07
2022-10-21T18:44:22.550Z,6.90
2022-10-21T18:49:24.922Z,7.10
2022-10-21T18:54:27.253Z,9.05
2022-10-21T18:59:29.435Z,8.65
2022-10-21T19:04:31.734Z,9.35
2022-10-21T19:09:34.223Z,8.40
2022-10-21T19:14:36.584Z,8.60
2022-10-21T19:19:39.630Z,8.75
2022-10-21T19:24:42.069Z,8.10
2022-10-21T19:29:45.445Z,8.93
2022-10-21T19:34:47.905Z,9.65
2022-10-21T19:39:50.421Z,11.80
2022-10-21T19:44:53.225Z,11.75
2022-10-21T19:49:55.688Z,12.32
2022-10-21T19:54:58.387Z,16.27
2022-10-21T20:00:00.854Z,15.35
2022-10-21T20:05:03.454Z,14.00
2022-10-21T20:10:06.646Z,24.60
2022-10-21T20:15:09.652Z,21.58
2022-10-21T20:20:12.094Z,15.52
2022-10-21T20:25:14.519Z,12.50
2022-10-21T20:30:17.231Z,15.40
2022-10-21T20:35:20.568Z,14.18
2022-10-21T20:40:23.143Z,10.82
2022-10-21T20:45:25.433Z,10.43
2022-10-21T20:50:28.136Z,10.95
2022-10-21T20:55:30.574Z,14.07
2022-10-21T21:06:13.865Z,14.00
2022-10-21T21:11:16.662Z,13.45
2022-10-21T21:16:21.564Z,12.70
2022-10-21T21:21:26.134Z,12.32
2022-10-21T21:26:30.054Z,10.00
2022-10-21T21:31:32.598Z,10.80
2022-10-21T21:36:35.088Z,10.60
2022-10-21T21:41:38.209Z,11.25
2022-10-21T21:46:55.985Z,10.13
2022-10-21T21:52:00.027Z,9.88
2022-10-21T21:57:28.983Z,9.05
2022-10-21T22:02:24.836Z,8.98
2022-10-21T22:07:26.995Z,9.48
2022-10-21T22:12:29.420Z,10.43
2022-10-21T22:17:31.684Z,11.07
2022-10-21T22:22:37.376Z,10.38
2022-10-21T22:27:40.613Z,10.20
2022-10-21T22:32:43.338Z,10.07
2022-10-21T22:37:45.601Z,10.07
2022-10-21T22:42:47.797Z,9.60
2022-10-21T22:47:50.162Z,9.35
2022-10-21T22:52:52.499Z,9.52
2022-10-21T22:57:54.709Z,10.48
2022-10-21T23:02:56.904Z,9.13
2022-10-21T23:07:59.168Z,9.73
2022-10-21T23:13:01.428Z,8.63
2022-10-21T23:18:04.333Z,9.82
2022-10-21T23:23:07.085Z,10.10
2022-10-21T23:28:10.149Z,9.32
2022-10-21T23:33:12.378Z,8.85
2022-10-21T23:38:14.607Z,8.73
2022-10-21T23:43:16.887Z,8.73
2022-10-21T23:48:19.146Z,8.65
2022-10-21T23:53:21.411Z,9.77
2022-10-21T23:58:23.780Z,8.77
